Les articles d'ExpertMaritime.pro


Votre expert maritime indépendant Xavier Braive est disponible sur la zone de Meschers-sur-Gironde - Port de Meschers - 17132

(Charente-Maritime - Poitou-Charentes)


Voir plan
Situation :

Le Port de Meschers, situé sur la rive droite de la Gironde près de son embouchure, est abrité par tous temps.

Il comprend :

- Un avant-chenal de 250 m de long, large de 8 m qui fait un angle de 8° W avec le Nord vrai, creusé à la cote + 0,50 m ; le vieux havre d’échouage ou « chenal » équipé de quai, cales en 1861.

- Un bassin d’échouage créé 1985 de 121 places sur pontons flottants, creuse à la cote + 1 m.

- Un bassin à flot mis en service en 1990, de 121 places à l’origine, 116 aujourd’hui (on y a placé des bateaux plus grands que prévu), en arrière d’une porte-écluse, T.E. 2,50 m ; le seuil de l’écluse est à la cote + 2 m ; les portes ouvrent quand la mer atteint le niveau + 3,50 m, avec 1,50 m d’eau sur le seuil (les cotes se réfèrent au niveau 0 des cartes marines).
Lat. 45° 33?, 3 N – Long. 00° 56?, 6 W ; carte SHOM 7029.
Distances : LE VERDON : 3,5 M. – ROYAN : 5 M. – PAUILLAC : 23 M. – BORDEAUX : 48 M.

- Une zone de mouillage, ouverte d’Avril à Septembre, de 22 corps morts, sur les vases à l’est du chenal d’accès.

Pratique :

Ville de Meschers : Location des anneaux.
Capitainerie, Tél.: 05.46.02.56.89 – VHF canal 9 –
n° de Fax 05 46 02 34 77 - GSM 06 15 11 23 10
Monsieur KERDUDOU est le capitaine assermenté du port.

SAUVETAGE :
CROSS ETEL, Tél.: O2 .97.553.535.
De juin à septembre Poste de Secours – Plage des Nonnes,
Tél. : 05.46.02.72.92, situé à 1 mille au nord du Port.
Météo affichée à la Capitainerie.
Météo locale sur la zone Port de Meschers
Heure (UTC) Dir.Vent Vit.Vent (nds) Force (Bft) T°min T°max P (mb) Hum.Rel.
26/01/2022 - 18:00:00 au 26/01/2022 - 21:00:00 047° (NE) 8 3 0°C 4°C 1033 78 %
26/01/2022 - 21:00:00 au 27/01/2022 - 00:00:00 042° (NE) 8 3 1°C 3°C 1033 78 %
27/01/2022 - 00:00:00 au 27/01/2022 - 03:00:00 046° (NE) 7 3 2°C 2°C 1032 77 %
27/01/2022 - 03:00:00 au 27/01/2022 - 06:00:00 037° (NE) 8 3 2°C 2°C 1033 78 %
27/01/2022 - 06:00:00 au 27/01/2022 - 09:00:00 038° (NE) 7 3 3°C 3°C 1034 73 %
27/01/2022 - 09:00:00 au 27/01/2022 - 12:00:00 021° (NNE) 8 3 8°C 8°C 1034 59 %
27/01/2022 - 12:00:00 au 27/01/2022 - 15:00:00 013° (NNE) 7 3 9°C 9°C 1033 61 %
27/01/2022 - 15:00:00 au 27/01/2022 - 18:00:00 009° (N) 6 2 6°C 6°C 1034 79 %
27/01/2022 - 18:00:00 au 27/01/2022 - 21:00:00 027° (NNE) 8 3 4°C 4°C 1035 86 %
27/01/2022 - 21:00:00 au 28/01/2022 - 00:00:00 050° (NE) 6 2 4°C 4°C 1036 86 %
28/01/2022 - 00:00:00 au 28/01/2022 - 03:00:00 038° (NE) 5 2 4°C 4°C 1036 86 %
28/01/2022 - 03:00:00 au 28/01/2022 - 06:00:00 023° (NNE) 4 2 5°C 5°C 1036 88 %
28/01/2022 - 06:00:00 au 28/01/2022 - 09:00:00 025° (NNE) 6 2 7°C 7°C 1038 91 %
28/01/2022 - 09:00:00 au 28/01/2022 - 12:00:00 034° (NE) 8 3 10°C 10°C 1038 82 %
28/01/2022 - 12:00:00 au 28/01/2022 - 15:00:00 025° (NNE) 8 3 10°C 10°C 1037 80 %
28/01/2022 - 15:00:00 au 28/01/2022 - 18:00:00 035° (NE) 7 3 7°C 7°C 1037 88 %
28/01/2022 - 18:00:00 au 28/01/2022 - 21:00:00 040° (NE) 7 3 6°C 6°C 1038 86 %
28/01/2022 - 21:00:00 au 29/01/2022 - 00:00:00 048° (NE) 6 2 5°C 5°C 1038 86 %
29/01/2022 - 00:00:00 au 29/01/2022 - 03:00:00 054° (NE) 4 2 4°C 4°C 1037 85 %
29/01/2022 - 03:00:00 au 29/01/2022 - 06:00:00 043° (NE) 6 2 4°C 4°C 1036 82 %
29/01/2022 - 06:00:00 au 29/01/2022 - 09:00:00 048° (NE) 5 2 5°C 5°C 1037 78 %
29/01/2022 - 09:00:00 au 29/01/2022 - 12:00:00 029° (NNE) 4 2 9°C 9°C 1037 70 %
29/01/2022 - 12:00:00 au 29/01/2022 - 15:00:00 024° (NNE) 4 2 11°C 11°C 1035 74 %
29/01/2022 - 15:00:00 au 29/01/2022 - 18:00:00 356° (N) 5 2 8°C 8°C 1035 87 %
29/01/2022 - 18:00:00 au 29/01/2022 - 21:00:00 022° (NNE) 5 2 7°C 7°C 1036 89 %
29/01/2022 - 21:00:00 au 30/01/2022 - 00:00:00 018° (NNE) 5 2 7°C 7°C 1035 90 %
30/01/2022 - 00:00:00 au 30/01/2022 - 03:00:00 032° (NNE) 3 1 6°C 6°C 1034 90 %
30/01/2022 - 03:00:00 au 30/01/2022 - 06:00:00 036° (NE) 4 2 6°C 6°C 1033 91 %
30/01/2022 - 06:00:00 au 30/01/2022 - 09:00:00 054° (NE) 6 2 7°C 7°C 1033 91 %
30/01/2022 - 09:00:00 au 30/01/2022 - 12:00:00 059° (ENE) 5 2 10°C 10°C 1033 80 %
30/01/2022 - 12:00:00 au 30/01/2022 - 15:00:00 039° (NE) 7 3 11°C 11°C 1030 78 %
30/01/2022 - 15:00:00 au 30/01/2022 - 18:00:00 020° (NNE) 6 2 9°C 9°C 1030 90 %
30/01/2022 - 18:00:00 au 30/01/2022 - 21:00:00 039° (NE) 6 2 8°C 8°C 1030 90 %
30/01/2022 - 21:00:00 au 31/01/2022 - 00:00:00 013° (NNE) 5 2 7°C 7°C 1029 87 %
31/01/2022 - 00:00:00 au 31/01/2022 - 03:00:00 350° (N) 6 2 6°C 6°C 1028 90 %
31/01/2022 - 03:00:00 au 31/01/2022 - 06:00:00 295° (WNW) 5 2 8°C 8°C 1028 87 %
31/01/2022 - 06:00:00 au 31/01/2022 - 09:00:00 265° (W) 8 3 9°C 9°C 1029 95 %
31/01/2022 - 09:00:00 au 31/01/2022 - 12:00:00 319° (NW) 15 4 11°C 11°C 1028 81 %
31/01/2022 - 12:00:00 au 31/01/2022 - 15:00:00 343° (NNW) 15 4 10°C 10°C 1029 72 %
31/01/2022 - 15:00:00 au 31/01/2022 - 18:00:00 345° (NNW) 13 4 8°C 8°C 1031 75 %
openweathermap
Ces informations sont partiellement extraites de Wikipedia, et des sites pertinents pour cette zone. Compilation d'informations de Xavier Braive.
Xavier Braive, Expert Maritime Plaisance se déplace sur Port de Meschers, Meschers-sur-Gironde, 17132, Charente-Maritime

Welcome to Cross-Channel yachtmen !

we can deliver survey reports in english, in case of dammage or prior to buy / sell a boat in France (pre-purchase survey), and more specifically on the Atlantic coast.

Uw onafhankelijk jachtexpert

verkrijkbaar op de Atlantische kust, bij aankoop of reparatie van jachten (metaal, polyester of composiet). Rapporten in Nederlands

BRAIVE, Xavier
Xavier Braive
Expert Maritime
Nouvelle Aquitaine
France
06 71 50 20 17